Time;durP1;ratioP1;P1;durP2;ratioP2;P2;SDS_P1;SDS_P2;PMS_P1;PMS_P2;Temp;Humidity;BMP_temperature;BMP_pressure;BME280_temperature;BME280_humidity;BME280_pressure;Samples;Min_cycle;Max_cycle;Signal;HPM_P1;HPM_P2
2022/10/25 00:01:27;;;;;;;38.67;25.70;;;;;;;13.17;100.00;98961.11;4246312;81;21045;-85
2022/10/25 00:07:53;;;;;;;39.42;24.15;;;;;;;13.16;100.00;98967.19;4240851;81;21015;-85
2022/10/25 00:14:02;;;;;;;34.92;22.05;;;;;;;13.13;100.00;98957.56;4238736;81;21552;-85
2022/10/25 00:20:45;;;;;;;35.38;22.58;;;;;;;13.13;100.00;98932.25;4274450;81;20992;-84
2022/10/25 00:26:46;;;;;;;46.18;24.10;;;;;;;13.11;100.00;98960.70;4250730;81;21028;-85
2022/10/25 00:32:51;;;;;;;37.60;24.05;;;;;;;13.12;100.00;98949.13;4244588;81;21610;-84
2022/10/25 00:38:56;;;;;;;35.98;22.42;;;;;;;13.12;100.00;98949.13;4254605;81;21012;-84
2022/10/25 00:45:01;;;;;;;34.75;22.82;;;;;;;13.15;100.00;98935.39;4250327;81;21058;-84
2022/10/25 00:51:03;;;;;;;37.48;24.00;;;;;;;13.15;100.00;98948.34;4220150;81;20984;-84
2022/10/25 00:57:22;;;;;;;34.75;21.23;;;;;;;13.18;100.00;98947.55;4265026;81;21021;-84
2022/10/25 01:03:38;;;;;;;39.13;21.52;;;;;;;13.21;100.00;98958.55;4247494;81;22147;-85
2022/10/25 01:09:44;;;;;;;29.52;21.68;;;;;;;13.18;100.00;98952.47;4274870;81;21567;-84
2022/10/25 01:16:36;;;;;;;30.88;20.72;;;;;;;13.19;100.00;98947.16;4250336;81;21011;-85
2022/10/25 01:30:07;;;;;;;29.20;19.55;;;;;;;13.21;100.00;98933.81;4178727;83;21580;-84
2022/10/25 01:36:28;;;;;;;28.40;18.17;;;;;;;13.20;100.00;98952.08;4231329;81;21050;-84
2022/10/25 01:43:03;;;;;;;28.52;18.67;;;;;;;13.11;100.00;98950.32;4276775;81;21650;-84
2022/10/25 01:49:13;;;;;;;33.23;19.75;;;;;;;13.05;100.00;98948.53;4270030;81;21064;-84
2022/10/25 02:02:39;;;;;;;31.48;19.77;;;;;;;12.97;100.00;98959.29;4275596;81;20963;-84
2022/10/25 02:09:00;;;;;;;32.10;19.40;;;;;;;12.93;100.00;98944.78;4265912;81;21038;-84
2022/10/25 02:15:17;;;;;;;34.43;18.23;;;;;;;12.92;100.00;98954.17;4276385;81;20958;-84
2022/10/25 02:21:21;;;;;;;;;;;;;;;12.83;100.00;98957.90;4268861;81;21868;-84
2022/10/25 02:27:26;;;;;;;42.33;17.77;;;;;;;12.76;100.00;98960.65;4274315;81;20170;-85
2022/10/25 02:33:27;;;;;;;23.75;16.75;;;;;;;12.65;100.00;98962.59;4258866;81;21028;-85
2022/10/25 02:39:35;;;;;;;24.87;17.02;;;;;;;12.56;100.00;98972.56;4269302;81;21031;-84
2022/10/25 02:45:37;;;;;;;27.07;17.10;;;;;;;12.56;100.00;98973.13;4281832;81;21058;-84
2022/10/25 02:51:53;;;;;;;31.42;17.82;;;;;;;12.60;100.00;98957.47;4284253;81;21051;-84
2022/10/25 02:57:57;;;;;;;25.95;17.65;;;;;;;12.60;100.00;98958.84;4269199;81;21043;-84
2022/10/25 03:03:59;;;;;;;31.55;20.08;;;;;;;12.57;100.00;98963.13;4261543;81;21094;-84
2022/10/25 03:10:00;;;;;;;27.58;19.15;;;;;;;12.55;100.00;98950.98;4284641;81;21038;-84
2022/10/25 03:16:03;;;;;;;25.00;18.48;;;;;;;12.55;100.00;98949.03;4182835;83;22023;-84
2022/10/25 03:22:05;;;;;;;26.05;18.75;;;;;;;12.47;100.00;98935.66;4265926;81;21042;-84
2022/10/25 03:28:07;;;;;;;29.15;18.45;;;;;;;12.51;100.00;98959.20;4293796;80;80643;-86
2022/10/25 03:34:09;;;;;;;26.95;18.32;;;;;;;12.51;100.00;98970.19;4312269;80;21039;-85
2022/10/25 03:40:17;;;;;;;26.17;17.85;;;;;;;12.50;100.00;98972.73;4245225;82;21062;-85
2022/10/25 03:46:20;;;;;;;28.27;17.50;;;;;;;12.50;100.00;98973.31;4212747;83;20976;-84
2022/10/25 03:52:21;;;;;;;29.20;17.87;;;;;;;12.52;100.00;98981.38;4218594;83;21055;-86
2022/10/25 03:58:22;;;;;;;26.07;16.07;;;;;;;12.56;100.00;98976.67;4311024;81;20994;-84
2022/10/25 04:04:23;;;;;;;25.60;17.62;;;;;;;12.55;100.00;98983.35;4245286;82;22048;-85
2022/10/25 04:10:25;;;;;;;26.30;18.85;;;;;;;12.59;100.00;98991.00;4274652;82;20974;-84
2022/10/25 04:16:41;;;;;;;24.82;16.93;;;;;;;12.59;100.00;98989.63;4289322;82;21056;-84
2022/10/25 04:22:44;;;;;;;30.08;18.95;;;;;;;12.59;100.00;98988.25;4265303;82;20999;-84
2022/10/25 04:28:51;;;;;;;31.77;19.37;;;;;;;12.59;100.00;98986.12;4268065;82;21087;-84
2022/10/25 04:34:53;;;;;;;;;;;;;;;12.61;100.00;98982.38;4304943;81;21033;-83
2022/10/25 04:40:58;;;;;;;24.80;16.90;;;;;;;12.61;100.00;98983.17;4307178;81;20115;-84
2022/10/25 04:47:00;;;;;;;33.67;19.17;;;;;;;12.57;100.00;98981.59;4304527;81;21874;-84
2022/10/25 04:53:04;;;;;;;35.15;18.25;;;;;;;12.59;100.00;98985.51;4307977;81;20968;-84
2022/10/25 04:59:05;;;;;;;33.02;18.67;;;;;;;12.58;100.00;98983.95;4313676;81;20972;-84
2022/10/25 05:05:09;;;;;;;23.85;17.20;;;;;;;12.54;100.00;98989.23;4240702;82;21509;-84
2022/10/25 05:11:13;;;;;;;27.93;18.07;;;;;;;12.45;100.00;99001.94;4308616;81;21045;-84
2022/10/25 05:17:19;;;;;;;26.12;17.35;;;;;;;12.33;100.00;98988.56;4308400;81;20977;-83
2022/10/25 05:23:21;;;;;;;29.67;18.90;;;;;;;12.30;100.00;98974.83;4253015;82;21027;-84
2022/10/25 05:29:32;;;;;;;28.38;19.37;;;;;;;12.23;100.00;98971.45;4271628;82;21029;-83
2022/10/25 05:35:35;;;;;;;29.23;16.80;;;;;;;12.26;100.00;98971.30;4234521;82;21402;-83
2022/10/25 05:41:44;;;;;;;26.17;18.50;;;;;;;12.26;100.00;98982.27;4259140;82;21055;-84
2022/10/25 05:47:59;;;;;;;26.95;17.17;;;;;;;12.26;100.00;98987.16;4228052;82;21033;-84
2022/10/25 05:54:10;;;;;;;28.30;17.98;;;;;;;12.20;100.00;98998.30;4139419;84;21152;-84
2022/10/25 06:00:13;;;;;;;22.58;15.85;;;;;;;12.14;100.00;99006.71;4308070;80;20974;-84
2022/10/25 06:06:14;;;;;;;27.67;16.85;;;;;;;12.04;100.00;99012.91;4214448;83;21039;-84
2022/10/25 06:12:16;;;;;;;24.65;17.20;;;;;;;12.05;100.00;99026.06;4262335;82;21075;-84
2022/10/25 06:18:25;;;;;;;29.65;17.52;;;;;;;12.02;100.00;99037.80;4225072;83;20936;-84
2022/10/25 06:24:30;;;;;;;26.77;16.67;;;;;;;12.06;100.00;99044.08;4263343;82;20976;-84
2022/10/25 06:31:00;;;;;;;27.70;16.62;;;;;;;12.17;100.00;99051.22;4235742;82;21045;-84
2022/10/25 06:37:17;;;;;;;23.75;16.00;;;;;;;12.28;100.00;99052.06;4233707;81;21023;-85
2022/10/25 06:43:25;;;;;;;25.08;17.20;;;;;;;12.36;100.00;99059.74;4255108;82;21043;-84
2022/10/25 06:49:44;;;;;;;27.45;19.70;;;;;;;12.34;100.00;99065.61;4183074;83;20972;-85
2022/10/25 06:55:51;;;;;;;26.75;19.25;;;;;;;12.41;100.00;99077.22;4228663;82;20980;-85
2022/10/25 07:02:06;;;;;;;27.25;18.32;;;;;;;12.66;100.00;99067.14;4205096;83;20977;-85
2022/10/25 07:08:07;;;;;;;22.85;13.80;;;;;;;12.95;100.00;99072.91;4204164;83;21021;-85
2022/10/25 07:14:18;;;;;;;20.40;13.05;;;;;;;13.48;100.00;99085.43;4200014;83;21016;-86
2022/10/25 07:20:20;;;;;;;20.25;12.43;;;;;;;13.94;100.00;99095.83;4199181;83;20953;-86
2022/10/25 07:26:31;;;;;;;16.90;12.70;;;;;;;14.15;100.00;99103.50;4199752;83;21036;-85
2022/10/25 07:32:33;;;;;;;21.75;12.68;;;;;;;14.23;100.00;99115.28;4207849;83;21008;-86
2022/10/25 07:38:34;;;;;;;19.80;13.28;;;;;;;14.34;100.00;99104.27;4193131;83;20993;-86
2022/10/25 07:44:55;;;;;;;18.45;13.32;;;;;;;14.60;100.00;99092.77;4199437;83;21039;-86
2022/10/25 07:51:07;;;;;;;19.40;11.30;;;;;;;15.01;100.00;99074.48;4217682;83;21004;-86
2022/10/25 07:57:09;;;;;;;16.90;10.23;;;;;;;15.24;100.00;99055.44;4206600;83;20953;-86
2022/10/25 08:03:20;;;;;;;17.25;9.15;;;;;;;15.82;100.00;99060.16;4343157;80;21025;-86
2022/10/25 08:09:31;;;;;;;12.20;7.92;;;;;;;16.37;100.00;99061.56;4348029;80;21002;-86
2022/10/25 08:16:00;;;;;;;13.75;7.45;;;;;;;17.07;100.00;99047.47;4353058;80;21499;-86
2022/10/25 08:22:26;;;;;;;11.75;5.78;;;;;;;17.88;100.00;99048.41;4347414;80;20991;-86
2022/10/25 08:28:31;;;;;;;6.00;4.97;;;;;;;18.62;100.00;99044.28;4337818;80;20995;-86
2022/10/25 08:34:32;;;;;;;8.53;5.05;;;;;;;19.19;100.00;99036.28;4341540;79;43137;-86
2022/10/25 08:41:09;;;;;;;7.40;5.00;;;;;;;19.66;100.00;99031.22;4393115;80;21009;-84
2022/10/25 09:07:38;;;;;;;10.60;5.00;;;;;;;20.27;99.63;99099.34;4338460;81;21012;-87
2022/10/25 09:14:17;;;;;;;7.87;4.85;;;;;;;18.88;98.45;99098.80;4333091;81;20992;-86
2022/10/25 09:20:42;;;;;;;14.70;5.60;;;;;;;18.10;99.75;99115.30;4310186;81;21161;-85
2022/10/25 09:27:05;;;;;;;11.18;4.37;;;;;;;17.59;100.00;99101.28;4216265;82;21157;-87
2022/10/25 09:33:18;;;;;;;9.83;3.40;;;;;;;17.24;100.00;99107.32;4255532;82;21461;-84
2022/10/25 09:39:50;;;;;;;6.72;2.62;;;;;;;17.47;100.00;99109.38;4329494;79;21020;-89
2022/10/25 09:46:02;;;;;;;7.42;2.98;;;;;;;17.36;99.71;99116.43;4294711;81;21076;-86
2022/10/25 09:52:31;;;;;;;3.67;2.47;;;;;;;17.02;98.95;99122.63;4289111;81;21033;-86
2022/10/25 09:58:40;;;;;;;5.55;2.85;;;;;;;16.86;98.58;99133.48;4282744;81;21081;-86
2022/10/25 10:04:42;;;;;;;5.62;2.67;;;;;;;16.45;97.89;99132.16;4285666;81;20960;-87
2022/10/25 10:16:59;;;;;;;4.33;3.10;;;;;;;16.38;99.58;99139.09;4282772;81;21462;-85
2022/10/25 10:23:01;;;;;;;8.95;3.58;;;;;;;16.29;99.20;99140.18;4299051;81;21889;-87
2022/10/25 10:29:12;;;;;;;8.25;4.35;;;;;;;16.07;99.79;99135.27;4286870;81;21060;-87
2022/10/25 10:35:32;;;;;;;11.18;5.78;;;;;;;15.92;99.80;99135.98;4276824;81;21037;-86
2022/10/25 10:42:04;;;;;;;8.55;5.20;;;;;;;16.08;100.00;99134.07;4393762;79;21020;-86
2022/10/25 10:48:19;;;;;;;7.25;4.35;;;;;;;16.30;100.00;99128.55;4396448;80;20988;-86
2022/10/25 10:54:51;;;;;;;9.40;4.65;;;;;;;16.19;99.46;99116.81;4243038;81;22110;-87
2022/10/25 11:01:11;;;;;;;9.60;4.90;;;;;;;16.14;100.00;99122.19;4224603;83;21120;-86
2022/10/25 11:07:33;;;;;;;7.42;4.55;;;;;;;16.12;100.00;99124.56;4376605;80;21880;-86
2022/10/25 11:13:35;;;;;;;7.30;4.30;;;;;;;15.95;100.00;99131.02;4377621;80;21047;-85
2022/10/25 19:47:21;;;;;;;17.25;9.88;;;;;;;11.15;100.00;99316.75;4576288;75;22925;-86
2022/10/25 19:53:23;;;;;;;15.28;9.03;;;;;;;11.13;100.00;99325.94;4481323;77;21348;-85
2022/10/25 19:59:32;;;;;;;17.85;9.63;;;;;;;11.26;100.00;99329.25;4469276;78;21042;-85
2022/10/25 20:05:33;;;;;;;16.90;9.35;;;;;;;11.40;100.00;99326.09;4467652;77;21002;-86
2022/10/25 20:11:44;;;;;;;15.83;9.53;;;;;;;11.55;100.00;99323.76;4456603;78;20987;-85
2022/10/25 20:17:47;;;;;;;15.48;9.15;;;;;;;11.64;100.00;99326.23;4457555;77;21380;-86
2022/10/25 20:24:08;;;;;;;17.57;9.40;;;;;;;11.70;100.00;99334.36;4452448;78;21010;-84
2022/10/25 20:30:10;;;;;;;18.02;8.35;;;;;;;11.74;100.00;99335.17;4464968;77;21023;-85
2022/10/25 20:36:12;;;;;;;19.35;9.33;;;;;;;11.81;100.00;99341.53;4458153;78;20972;-86
2022/10/25 20:42:22;;;;;;;17.95;9.35;;;;;;;11.77;100.00;99346.20;4461415;78;21061;-85
2022/10/25 20:48:25;;;;;;;20.08;9.35;;;;;;;11.69;100.00;99347.27;4445045;78;21025;-85
2022/10/25 20:54:26;;;;;;;20.08;9.80;;;;;;;11.67;100.00;99342.73;4461058;77;20987;-85
2022/10/25 21:00:31;;;;;;;13.32;8.90;;;;;;;11.61;100.00;99346.14;4461516;78;21671;-85
2022/10/25 21:06:34;;;;;;;13.75;8.00;;;;;;;11.54;100.00;99358.41;4448305;78;21939;-84
2022/10/25 21:12:43;;;;;;;14.15;7.85;;;;;;;11.54;100.00;99350.95;4456527;78;21039;-85
2022/10/25 21:18:46;;;;;;;18.57;9.43;;;;;;;11.53;100.00;99360.91;4457096;78;21044;-85
2022/10/25 21:24:47;;;;;;;18.73;8.63;;;;;;;11.51;100.00;99352.30;4438775;79;21532;-85
2022/10/25 21:31:00;;;;;;;18.90;8.48;;;;;;;11.41;100.00;99350.19;4442229;78;21552;-85
2022/10/25 21:37:24;;;;;;;17.07;7.80;;;;;;;11.32;100.00;99345.58;4307898;80;22031;-85
2022/10/25 21:50:14;;;;;;;;;;;;;;;11.06;100.00;99357.34;4462797;78;21036;-85
2022/10/25 21:56:22;;;;;;;15.28;8.28;;;;;;;10.91;100.00;99356.35;4468677;78;20149;-84
2022/10/25 22:02:24;;;;;;;17.52;9.68;;;;;;;10.80;100.00;99355.39;4463551;79;21443;-85
2022/10/25 22:08:28;;;;;;;13.60;7.42;;;;;;;10.78;100.00;99357.70;4455348;78;21935;-85
2022/10/25 22:14:30;;;;;;;10.72;7.22;;;;;;;10.84;100.00;99354.06;4465685;77;20995;-85
2022/10/25 22:21:00;;;;;;;13.13;7.97;;;;;;;10.88;100.00;99352.19;4460562;78;20975;-85
2022/10/25 22:27:02;;;;;;;18.77;8.13;;;;;;;10.84;100.00;99352.69;4454777;78;21051;-84
2022/10/25 22:40:00;;;;;;;22.65;11.93;;;;;;;10.80;100.00;99347.18;4458074;77;20976;-84
2022/10/25 22:46:05;;;;;;;22.25;12.37;;;;;;;10.80;100.00;99351.86;4471221;78;21476;-85
2022/10/25 22:52:06;;;;;;;28.60;12.30;;;;;;;10.80;100.00;99353.23;4459722;78;21017;-85
2022/10/25 22:58:22;;;;;;;22.10;11.10;;;;;;;10.83;100.00;99352.48;4444569;78;21009;-85
2022/10/25 23:04:50;;;;;;;19.55;10.90;;;;;;;10.75;100.00;99352.96;4445227;78;20991;-84
2022/10/25 23:11:22;;;;;;;15.65;9.13;;;;;;;10.68;100.00;99358.91;4453270;77;21450;-84
2022/10/25 23:17:24;;;;;;;22.10;12.05;;;;;;;10.60;100.00;99364.05;4448046;78;21876;-84
2022/10/25 23:23:34;;;;;;;23.05;11.50;;;;;;;10.45;100.00;99361.64;4463957;78;21036;-84
2022/10/25 23:29:35;;;;;;;20.92;11.83;;;;;;;10.36;100.00;99369.31;4453649;78;21045;-84
2022/10/25 23:35:40;;;;;;;23.18;12.45;;;;;;;10.26;100.00;99369.90;4472346;77;21012;-83
2022/10/25 23:41:50;;;;;;;26.10;13.10;;;;;;;10.09;100.00;99368.20;4450626;78;21660;-84
2022/10/25 23:47:52;;;;;;;21.35;11.53;;;;;;;10.14;100.00;99367.34;4451120;77;20993;-85
2022/10/25 23:53:53;;;;;;;21.35;11.90;;;;;;;9.98;100.00;99383.02;4454118;78;21076;-85
2022/10/25 23:59:57;;;;;;;22.87;13.55;;;;;;;10.11;100.00;99391.31;4448207;79;21468;-84
